Time;durP1;ratioP1;P1;durP2;ratioP2;P2;SDS_P1;SDS_P2;PMS_P1;PMS_P2;Temp;Humidity;BMP_temperature;BMP_pressure;BME280_temperature;BME280_humidity;BME280_pressure;Samples;Min_cycle;Max_cycle;Signal;HPM_P1;HPM_P2
2022/03/18 00:01:02;;;;;;;;;;;;;;;17.87;49.98;102533.19;4943104;28;126784;-70
2022/03/18 00:03:28;;;;;;;;;;;;;;;17.85;50.16;102538.09;4942691;28;117150;-66
2022/03/18 00:05:54;;;;;;;;;;;;;;;17.84;50.28;102542.72;4942306;28;128253;-65
2022/03/18 00:08:20;;;;;;;;;;;;;;;17.83;50.21;102543.78;4943654;28;98987;-70
2022/03/18 00:10:46;;;;;;;;;;;;;;;17.82;50.18;102547.63;4942016;28;127554;-66
2022/03/18 00:13:12;;;;;;;;;;;;;;;17.81;50.38;102547.91;4943737;28;97866;-65
2022/03/18 00:15:38;;;;;;;;;;;;;;;17.80;50.44;102540.78;4942108;28;118165;-66
2022/03/18 00:18:04;;;;;;;;;;;;;;;17.79;50.36;102550.88;4921950;28;105078;-70
2022/03/18 00:20:30;;;;;;;;;;;;;;;17.77;50.46;102558.50;4937124;28;127844;-69
2022/03/18 00:22:56;;;;;;;;;;;;;;;17.76;50.77;102554.13;4925783;28;97887;-70
2022/03/18 00:25:22;;;;;;;;;;;;;;;17.75;50.41;102546.22;4932934;28;98620;-65
2022/03/18 00:27:48;;;;;;;;;;;;;;;17.73;50.37;102560.09;4924815;28;127665;-70
2022/03/18 00:30:16;;;;;;;;;;;;;;;17.70;50.36;102560.63;4907439;28;127850;-70
2022/03/18 00:32:42;;;;;;;;;;;;;;;17.71;50.50;102564.16;4925456;28;97801;-66
2022/03/18 00:35:08;;;;;;;;;;;;;;;17.69;50.62;102569.09;4942830;28;116868;-70
2022/03/18 00:37:37;;;;;;;;;;;;;;;17.67;50.48;102567.41;4923927;28;125890;-69
2022/03/18 00:40:04;;;;;;;;;;;;;;;17.65;50.69;102574.25;4924178;28;126781;-66
2022/03/18 00:42:31;;;;;;;;;;;;;;;17.64;50.66;102569.84;4942529;28;97906;-66
2022/03/18 00:45:00;;;;;;;;;;;;;;;17.63;50.73;102579.13;4943098;28;98437;-66
2022/03/18 00:52:55;;;;;;;;;;;;;;;17.59;50.59;102578.00;4940295;28;97738;-65
2022/03/18 00:55:21;;;;;;;;;;;;;;;17.59;50.63;102588.91;4906956;28;128591;-70
2022/03/18 00:57:47;;;;;;;;;;;;;;;17.58;50.85;102584.56;4923780;28;129007;-66
2022/03/18 01:00:13;;;;;;;;;;;;;;;17.56;50.79;102589.44;4944340;28;127106;-70
2022/03/18 01:02:39;;;;;;;;;;;;;;;17.55;50.80;102591.34;4945772;28;97998;-66
2022/03/18 01:05:06;;;;;;;;;;;;;;;17.55;50.87;102590.53;4945194;28;98965;-69
2022/03/18 01:07:32;;;;;;;;;;;;;;;17.53;50.78;102590.81;4946082;28;123822;-65
2022/03/18 01:09:58;;;;;;;;;;;;;;;17.52;50.92;102597.31;4946449;28;97875;-69
2022/03/18 01:12:25;;;;;;;;;;;;;;;17.52;50.81;102593.78;4945483;28;117245;-70
2022/03/18 01:14:51;;;;;;;;;;;;;;;17.52;50.81;102599.22;4945479;28;98926;-66
2022/03/18 01:17:17;;;;;;;;;;;;;;;17.50;50.82;102602.22;4945732;28;98824;-71
2022/03/18 01:19:43;;;;;;;;;;;;;;;17.50;50.88;102613.13;4945828;28;98215;-66
2022/03/18 01:22:09;;;;;;;;;;;;;;;17.50;50.87;102609.59;4927817;28;97952;-66
2022/03/18 01:24:38;;;;;;;;;;;;;;;17.48;50.73;102620.72;4941165;28;128078;-66
2022/03/18 01:27:05;;;;;;;;;;;;;;;17.48;50.87;102623.47;4934534;28;128951;-70
2022/03/18 01:29:31;;;;;;;;;;;;;;;17.48;50.84;102619.91;4945107;28;98562;-70
2022/03/18 01:31:57;;;;;;;;;;;;;;;17.48;50.98;102611.75;4946381;28;98180;-70
2022/03/18 01:34:23;;;;;;;;;;;;;;;17.48;50.90;102625.38;4944535;28;115971;-65
2022/03/18 01:36:49;;;;;;;;;;;;;;;17.47;50.90;102616.38;4944666;28;126931;-65
2022/03/18 01:39:15;;;;;;;;;;;;;;;17.47;50.90;102613.66;4945435;28;97821;-66
2022/03/18 01:41:42;;;;;;;;;;;;;;;17.47;50.97;102621.00;4945715;28;97893;-66
2022/03/18 01:44:11;;;;;;;;;;;;;;;17.48;50.87;102620.72;4945378;28;123981;-69
2022/03/18 01:46:37;;;;;;;;;;;;;;;17.48;50.88;102630.81;4945536;28;99374;-65
2022/03/18 01:49:04;;;;;;;;;;;;;;;17.47;50.86;102629.19;4945411;28;98168;-66
2022/03/18 01:51:30;;;;;;;;;;;;;;;17.48;50.99;102631.63;4945593;28;98293;-70
2022/03/18 01:56:41;;;;;;;;;;;;;;;17.47;50.85;102634.63;4928858;28;97877;-66
2022/03/18 01:59:07;;;;;;;;;;;;;;;17.47;50.78;102640.09;4944220;28;127703;-65
2022/03/18 02:01:33;;;;;;;;;;;;;;;17.46;50.97;102636.56;4944874;28;115623;-70
2022/03/18 02:03:59;;;;;;;;;;;;;;;17.46;50.84;102643.91;4909927;28;115669;-69
2022/03/18 02:06:24;;;;;;;;;;;;;;;17.46;50.86;102647.47;4944159;28;127309;-66
2022/03/18 02:08:50;;;;;;;;;;;;;;;17.46;50.92;102646.63;4926937;28;127575;-70
2022/03/18 02:11:16;;;;;;;;;;;;;;;17.45;51.01;102656.72;4944330;28;117399;-66
2022/03/18 02:13:42;;;;;;;;;;;;;;;17.45;50.86;102661.31;4944263;28;128085;-66
2022/03/18 02:16:08;;;;;;;;;;;;;;;17.44;50.93;102663.22;4943875;28;127989;-69
2022/03/18 02:18:34;;;;;;;;;;;;;;;17.43;50.77;102656.97;4944762;28;127558;-69
2022/03/18 02:21:00;;;;;;;;;;;;;;;17.43;50.80;102662.41;4943431;28;119588;-70
2022/03/18 02:23:26;;;;;;;;;;;;;;;17.42;50.98;102663.50;4926265;28;115503;-65
2022/03/18 02:25:52;;;;;;;;;;;;;;;17.41;50.92;102667.31;4935809;28;122007;-65
2022/03/18 02:28:19;;;;;;;;;;;;;;;17.42;50.93;102666.22;4926319;28;128049;-66
2022/03/18 02:30:45;;;;;;;;;;;;;;;17.42;50.94;102676.31;4927395;28;97905;-66
2022/03/18 02:33:11;;;;;;;;;;;;;;;17.41;50.95;102680.94;4925192;28;127899;-70
2022/03/18 02:35:37;;;;;;;;;;;;;;;17.40;50.86;102678.47;4925133;28;98383;-66
2022/03/18 02:38:03;;;;;;;;;;;;;;;17.39;50.80;102677.66;4926621;28;98121;-70
2022/03/18 02:40:29;;;;;;;;;;;;;;;17.41;50.88;102685.59;4926605;28;116368;-70
2022/03/18 02:42:55;;;;;;;;;;;;;;;17.40;51.08;102690.19;4922759;28;98599;-70
2022/03/18 02:45:21;;;;;;;;;;;;;;;17.39;50.82;102688.56;4924437;28;98435;-66
2022/03/18 02:47:47;;;;;;;;;;;;;;;17.39;50.84;102693.19;4943065;28;127558;-71
2022/03/18 02:50:15;;;;;;;;;;;;;;;17.38;50.84;102706.00;4944394;28;98027;-69
2022/03/18 02:52:41;;;;;;;;;;;;;;;17.38;50.87;102702.47;4944428;28;99170;-66
2022/03/18 02:55:09;;;;;;;;;;;;;;;17.37;50.77;102703.50;4943683;28;124188;-65
2022/03/18 02:57:35;;;;;;;;;;;;;;;17.36;50.82;102699.16;4943274;28;98044;-70
2022/03/18 03:00:00;;;;;;;;;;;;;;;17.36;50.86;102705.41;4944579;28;98107;-70
2022/03/18 03:02:27;;;;;;;;;;;;;;;17.36;50.78;102707.31;4944309;28;127033;-70
2022/03/18 03:10:24;;;;;;;;;;;;;;;17.33;51.01;102721.47;4942311;28;97842;-66
2022/03/18 03:12:50;;;;;;;;;;;;;;;17.33;50.83;102726.91;4943745;28;98313;-70
2022/03/18 03:15:16;;;;;;;;;;;;;;;17.30;50.84;102730.19;4921358;28;112653;-66
2022/03/18 03:17:42;;;;;;;;;;;;;;;17.30;50.83;102735.63;4925478;28;127611;-70
2022/03/18 03:20:09;;;;;;;;;;;;;;;17.29;50.81;102729.38;4944645;28;97901;-66
2022/03/18 03:22:35;;;;;;;;;;;;;;;17.28;50.96;102735.88;4924149;28;119367;-65
2022/03/18 03:25:01;;;;;;;;;;;;;;;17.28;50.75;102738.59;4935352;28;128319;-66
2022/03/18 03:27:30;;;;;;;;;;;;;;;17.27;50.90;102742.41;4923156;28;127157;-71
2022/03/18 03:29:58;;;;;;;;;;;;;;;17.26;50.77;102739.97;4925415;28;97972;-66
2022/03/18 03:32:24;;;;;;;;;;;;;;;17.25;50.92;102747.31;4922666;28;103432;-66
2022/03/18 03:34:50;;;;;;;;;;;;;;;17.23;50.80;102749.47;4923480;28;127310;-71
2022/03/18 03:37:16;;;;;;;;;;;;;;;17.22;51.00;102758.72;4924570;28;97831;-70
2022/03/18 03:39:42;;;;;;;;;;;;;;;17.21;50.86;102761.69;4924005;28;98308;-66
2022/03/18 03:42:08;;;;;;;;;;;;;;;17.20;51.03;102768.22;4923189;28;128240;-70
2022/03/18 03:44:34;;;;;;;;;;;;;;;17.18;50.88;102768.50;4923024;28;128194;-70
2022/03/18 03:46:59;;;;;;;;;;;;;;;17.17;50.83;102773.13;4923997;28;125671;-66
2022/03/18 03:49:25;;;;;;;;;;;;;;;17.17;50.99;102781.31;4924050;28;117374;-65
2022/03/18 03:51:51;;;;;;;;;;;;;;;17.16;50.85;102776.09;4904923;28;127360;-71
2022/03/18 03:54:17;;;;;;;;;;;;;;;17.14;51.05;102779.06;4922876;28;125966;-70
2022/03/18 03:56:43;;;;;;;;;;;;;;;17.13;50.84;102784.78;4922920;28;127541;-70
2022/03/18 03:59:09;;;;;;;;;;;;;;;17.12;51.04;102783.13;4923429;28;118181;-65
2022/03/18 04:01:35;;;;;;;;;;;;;;;17.12;51.06;102788.56;4922611;28;126185;-66
2022/03/18 04:04:01;;;;;;;;;;;;;;;17.10;51.12;102790.75;4921764;28;126958;-65
2022/03/18 04:06:27;;;;;;;;;;;;;;;17.09;50.98;102789.91;4922503;28;127641;-70
2022/03/18 04:08:52;;;;;;;;;;;;;;;17.09;51.03;102792.63;4924877;28;118056;-71
2022/03/18 04:11:18;;;;;;;;;;;;;;;17.07;50.89;102800.25;4922668;28;118763;-71
2022/03/18 04:13:44;;;;;;;;;;;;;;;17.07;50.95;102804.88;4923523;28;126108;-66
2022/03/18 04:16:10;;;;;;;;;;;;;;;17.05;50.99;102807.03;4920036;28;127806;-71
2022/03/18 04:18:36;;;;;;;;;;;;;;;17.05;50.79;102807.03;4923904;28;117850;-65
2022/03/18 04:21:02;;;;;;;;;;;;;;;17.03;50.83;102812.72;4921825;28;127455;-65
2022/03/18 04:23:28;;;;;;;;;;;;;;;17.03;50.88;102811.91;4921236;28;127987;-66
2022/03/18 04:25:54;;;;;;;;;;;;;;;17.02;50.89;102816.53;4917161;28;126929;-65
2022/03/18 04:28:20;;;;;;;;;;;;;;;17.00;51.02;102824.13;4912888;28;116872;-70
2022/03/18 04:30:46;;;;;;;;;;;;;;;16.99;50.97;102825.22;4907640;28;100663;-71
2022/03/18 04:33:12;;;;;;;;;;;;;;;16.98;50.99;102830.91;4924935;28;98275;-71
2022/03/18 04:35:38;;;;;;;;;;;;;;;16.96;50.95;102831.16;4905153;28;98001;-71
2022/03/18 04:38:03;;;;;;;;;;;;;;;16.95;51.01;102832.25;4916989;28;116014;-66
2022/03/18 04:40:31;;;;;;;;;;;;;;;16.94;50.99;102833.34;4925280;28;128201;-71
2022/03/18 04:42:57;;;;;;;;;;;;;;;16.92;50.99;102844.47;4926835;28;97833;-65
2022/03/18 04:45:23;;;;;;;;;;;;;;;16.90;51.05;102841.19;4907127;28;125500;-66
2022/03/18 04:47:49;;;;;;;;;;;;;;;16.89;50.97;102844.16;4908561;28;98090;-71
2022/03/18 04:50:15;;;;;;;;;;;;;;;16.89;51.00;102846.88;4927049;28;98270;-71
2022/03/18 04:52:41;;;;;;;;;;;;;;;16.87;50.82;102854.47;4926989;28;98206;-71
2022/03/18 04:55:07;;;;;;;;;;;;;;;16.85;51.14;102857.44;4925895;28;126654;-65
2022/03/18 04:57:33;;;;;;;;;;;;;;;16.83;51.06;102861.50;4908931;28;97897;-71
2022/03/18 04:59:59;;;;;;;;;;;;;;;16.82;51.07;102868.88;4926089;28;115678;-66
2022/03/18 05:02:25;;;;;;;;;;;;;;;16.81;50.93;102859.03;4926539;28;109207;-71
2022/03/18 05:04:51;;;;;;;;;;;;;;;16.80;51.18;102862.81;4925589;28;98699;-71
2022/03/18 05:07:17;;;;;;;;;;;;;;;16.79;51.04;102865.81;4925866;28;103301;-66
2022/03/18 05:09:44;;;;;;;;;;;;;;;16.79;51.08;102874.00;4924499;28;128345;-66
2022/03/18 05:12:11;;;;;;;;;;;;;;;16.77;51.09;102874.22;4924981;28;125564;-71
2022/03/18 05:14:38;;;;;;;;;;;;;;;16.77;50.88;102879.66;4925548;28;104300;-71
2022/03/18 05:17:04;;;;;;;;;;;;;;;16.76;50.93;102882.66;4927088;28;98001;-65
2022/03/18 05:19:30;;;;;;;;;;;;;;;16.75;50.91;102889.19;4925506;28;100561;-66
2022/03/18 05:21:57;;;;;;;;;;;;;;;16.75;50.98;102881.00;4924884;28;128122;-70
2022/03/18 05:24:23;;;;;;;;;;;;;;;16.74;50.97;102893.81;4925944;28;97915;-65
2022/03/18 05:26:49;;;;;;;;;;;;;;;16.74;50.93;102896.53;4926417;28;99400;-65
2022/03/18 05:29:15;;;;;;;;;;;;;;;16.74;50.99;102893.81;4939330;28;125244;-66
2022/03/18 05:31:42;;;;;;;;;;;;;;;16.75;50.81;102898.16;4923488;28;98346;-71
2022/03/18 05:34:08;;;;;;;;;;;;;;;16.77;50.82;102906.06;4926078;28;98155;-71
2022/03/18 05:36:34;;;;;;;;;;;;;;;16.79;51.04;102909.41;4924939;28;97879;-65
2022/03/18 05:38:59;;;;;;;;;;;;;;;16.81;51.07;102907.22;4923139;28;128155;-66
2022/03/18 05:41:26;;;;;;;;;;;;;;;16.82;50.82;102922.47;4925217;28;125746;-70
2022/03/18 05:43:51;;;;;;;;;;;;;;;16.84;50.81;102925.78;4923189;28;126445;-66
2022/03/18 05:46:17;;;;;;;;;;;;;;;16.86;50.77;102934.56;4924757;28;98732;-72
2022/03/18 05:48:43;;;;;;;;;;;;;;;16.87;50.87;102934.28;4924718;28;127082;-66
2022/03/18 05:51:09;;;;;;;;;;;;;;;16.89;50.66;102940.31;4922655;28;128013;-66
2022/03/18 05:53:35;;;;;;;;;;;;;;;16.91;50.79;102940.88;4926458;28;97737;-71
2022/03/18 05:58:47;;;;;;;;;;;;;;;16.96;50.89;102948.31;4918842;28;98247;-71
2022/03/18 06:01:13;;;;;;;;;;;;;;;17.01;50.73;102947.56;4925507;28;97971;-66
2022/03/18 06:03:39;;;;;;;;;;;;;;;17.03;50.77;102948.13;4904184;28;127561;-66
2022/03/18 06:06:05;;;;;;;;;;;;;;;17.06;50.67;102959.38;4922786;28;117247;-66
2022/03/18 06:14:00;;;;;;;;;;;;;;;17.21;50.79;102968.81;4922405;28;97887;-71
2022/03/18 06:16:26;;;;;;;;;;;;;;;17.24;50.71;102973.75;4925016;28;100114;-66
2022/03/18 06:18:52;;;;;;;;;;;;;;;17.27;50.76;102976.00;4921601;28;127223;-71
2022/03/18 06:21:20;;;;;;;;;;;;;;;17.29;50.65;102982.84;4923429;28;125998;-71
2022/03/18 06:23:46;;;;;;;;;;;;;;;17.32;50.74;102995.94;4921969;28;127715;-66
2022/03/18 06:26:12;;;;;;;;;;;;;;;17.34;50.65;103002.00;4908568;28;117148;-67
2022/03/18 06:28:38;;;;;;;;;;;;;;;17.38;50.77;103000.41;4919715;28;128603;-66
2022/03/18 06:31:06;;;;;;;;;;;;;;;17.43;50.52;103003.19;4935839;28;124043;-66
2022/03/18 06:33:35;;;;;;;;;;;;;;;17.51;50.67;103003.84;4925186;28;98515;-66
2022/03/18 06:36:00;;;;;;;;;;;;;;;17.57;50.59;103002.84;4903226;28;98083;-71
2022/03/18 06:38:26;;;;;;;;;;;;;;;17.62;50.58;103005.63;4904825;28;126208;-66
2022/03/18 06:40:52;;;;;;;;;;;;;;;17.68;50.56;103010.03;4915843;28;128237;-72
2022/03/18 06:43:18;;;;;;;;;;;;;;;17.74;50.59;103019.13;4925127;28;98427;-66
2022/03/18 06:45:44;;;;;;;;;;;;;;;17.80;50.58;103016.25;4921577;28;116495;-72
2022/03/18 06:48:10;;;;;;;;;;;;;;;17.84;50.40;103017.38;4923660;28;128157;-72
2022/03/18 06:50:36;;;;;;;;;;;;;;;17.93;50.45;103014.19;4924197;28;98991;-66
2022/03/18 06:53:02;;;;;;;;;;;;;;;17.99;50.42;103021.34;4922496;28;127916;-66
2022/03/18 06:55:28;;;;;;;;;;;;;;;18.05;50.41;103021.16;4923954;28;117516;-66
2022/03/18 06:57:54;;;;;;;;;;;;;;;18.13;50.29;103031.59;4902026;28;128514;-66
2022/03/18 07:00:20;;;;;;;;;;;;;;;18.22;50.29;103029.25;4906699;28;128299;-72
2022/03/18 07:02:46;;;;;;;;;;;;;;;18.34;50.25;103040.00;4904866;28;127920;-66
2022/03/18 07:05:12;;;;;;;;;;;;;;;18.45;50.01;103049.13;4910677;28;116481;-66
2022/03/18 07:07:38;;;;;;;;;;;;;;;18.56;49.95;103050.88;4924810;28;99265;-72
2022/03/18 07:10:04;;;;;;;;;;;;;;;18.68;49.84;103057.00;4924447;28;98823;-71
2022/03/18 07:12:30;;;;;;;;;;;;;;;18.82;49.89;103057.41;4924471;28;97816;-66
2022/03/18 07:14:56;;;;;;;;;;;;;;;18.95;49.61;103056.97;4924782;28;97753;-67
2022/03/18 07:20:07;;;;;;;;;;;;;;;19.28;49.63;103071.41;4922662;28;97756;-72
2022/03/18 07:22:33;;;;;;;;;;;;;;;19.45;49.32;103072.06;4923762;28;121655;-72
2022/03/18 07:24:59;;;;;;;;;;;;;;;19.57;49.39;103077.31;4921820;28;117494;-66
2022/03/18 07:27:25;;;;;;;;;;;;;;;19.69;49.32;103075.25;4923637;28;127134;-71
2022/03/18 07:29:51;;;;;;;;;;;;;;;19.84;49.01;103072.53;4923551;28;126713;-71
2022/03/18 07:32:17;;;;;;;;;;;;;;;19.98;48.99;103081.09;4942120;28;127374;-67
2022/03/18 07:34:43;;;;;;;;;;;;;;;20.06;49.26;103094.25;4943219;28;97899;-66
2022/03/18 07:37:09;;;;;;;;;;;;;;;20.17;49.26;103091.56;4942514;28;126305;-66
2022/03/18 07:39:35;;;;;;;;;;;;;;;20.32;48.92;103092.44;4943004;28;115857;-67
2022/03/18 07:42:01;;;;;;;;;;;;;;;20.41;48.99;103098.19;4942787;28;126977;-71
2022/03/18 07:44:27;;;;;;;;;;;;;;;20.58;48.80;103092.50;4925945;28;98058;-66
2022/03/18 07:46:53;;;;;;;;;;;;;;;20.86;48.54;103095.81;4942628;28;125905;-66
2022/03/18 07:49:19;;;;;;;;;;;;;;;20.99;48.45;103087.88;4924331;28;128513;-67
2022/03/18 07:51:45;;;;;;;;;;;;;;;21.17;48.37;103096.63;4909471;28;97945;-68
2022/03/18 07:54:11;;;;;;;;;;;;;;;21.36;48.20;103094.97;4909491;28;116776;-71
2022/03/18 07:56:37;;;;;;;;;;;;;;;21.73;47.82;103102.84;4907216;28;127190;-71
2022/03/18 07:59:03;;;;;;;;;;;;;;;22.02;47.62;103096.69;4924611;28;126869;-66
2022/03/18 08:01:29;;;;;;;;;;;;;;;22.19;47.49;103105.41;4908423;28;97812;-66
2022/03/18 08:03:55;;;;;;;;;;;;;;;22.44;47.30;103109.09;4908976;28;104850;-66
2022/03/18 08:06:21;;;;;;;;;;;;;;;22.72;46.87;103097.38;4920270;28;128300;-66
2022/03/18 08:08:47;;;;;;;;;;;;;;;23.13;46.91;103115.47;4908338;28;98573;-66
2022/03/18 08:11:14;;;;;;;;;;;;;;;23.56;46.30;103110.91;4941459;28;122218;-71
2022/03/18 08:13:40;;;;;;;;;;;;;;;24.11;45.44;103111.38;4928703;28;117669;-66
2022/03/18 08:16:06;;;;;;;;;;;;;;;24.58;45.14;103112.38;4945756;28;99010;-71
2022/03/18 08:18:32;;;;;;;;;;;;;;;25.05;44.74;103113.25;4928200;28;127885;-72
2022/03/18 08:20:58;;;;;;;;;;;;;;;25.58;44.10;103121.13;4927279;28;127657;-66
2022/03/18 08:23:26;;;;;;;;;;;;;;;26.06;43.58;103119.91;4928341;28;116846;-71
2022/03/18 08:25:52;;;;;;;;;;;;;;;26.48;43.42;103118.69;4927469;28;99072;-71
2022/03/18 08:28:17;;;;;;;;;;;;;;;27.02;42.54;103127.88;4947516;28;99104;-66
2022/03/18 08:30:43;;;;;;;;;;;;;;;27.73;41.93;103133.44;4945292;28;121919;-66
2022/03/18 08:33:09;;;;;;;;;;;;;;;28.32;41.19;103141.41;4945554;28;116602;-66
2022/03/18 08:35:36;;;;;;;;;;;;;;;28.82;40.72;103130.66;4945052;28;128114;-66
2022/03/18 08:38:04;;;;;;;;;;;;;;;29.17;40.67;103136.16;4946938;28;99381;-71
2022/03/18 08:40:35;;;;;;;;;;;;;;;29.47;40.35;103139.00;4945789;28;98011;-66
2022/03/18 08:43:03;;;;;;;;;;;;;;;29.78;40.21;103142.28;4929486;28;97824;-67
2022/03/18 08:45:29;;;;;;;;;;;;;;;30.00;40.06;103135.63;4945152;28;124927;-69
2022/03/18 08:47:55;;;;;;;;;;;;;;;30.13;39.55;103141.28;4946703;28;103504;-69
2022/03/18 08:50:21;;;;;;;;;;;;;;;30.17;39.92;103145.84;4944860;28;125365;-64
2022/03/18 08:52:49;;;;;;;;;;;;;;;30.31;39.82;103146.41;4929197;28;97873;-64
2022/03/18 08:55:15;;;;;;;;;;;;;;;30.39;39.72;103149.47;4946871;28;98586;-70
2022/03/18 08:57:41;;;;;;;;;;;;;;;30.60;39.28;103146.66;4946132;28;98361;-65
2022/03/18 09:00:11;;;;;;;;;;;;;;;30.94;39.06;103143.56;4910233;28;125966;-69
2022/03/18 09:02:38;;;;;;;;;;;;;;;31.18;38.88;103158.72;4928974;28;97743;-65
2022/03/18 09:05:05;;;;;;;;;;;;;;;31.12;38.82;103144.19;4945775;28;99333;-71
2022/03/18 09:07:31;;;;;;;;;;;;;;;31.03;38.97;103151.81;4946292;28;99068;-65
2022/03/18 09:09:57;;;;;;;;;;;;;;;31.04;39.22;103153.44;4945290;28;97796;-65
2022/03/18 09:12:23;;;;;;;;;;;;;;;31.22;39.08;103145.72;4946098;28;111747;-70
2022/03/18 09:14:49;;;;;;;;;;;;;;;31.37;39.13;103147.06;4945093;28;98287;-65
2022/03/18 09:17:15;;;;;;;;;;;;;;;31.41;39.24;103148.81;4945887;28;110744;-65
2022/03/18 09:19:42;;;;;;;;;;;;;;;31.59;39.10;103160.53;4944079;28;104921;-65
2022/03/18 09:22:08;;;;;;;;;;;;;;;31.78;39.12;103165.53;4946097;28;97811;-71
2022/03/18 09:24:35;;;;;;;;;;;;;;;31.45;39.74;103158.09;4941621;28;126661;-72
2022/03/18 09:27:01;;;;;;;;;;;;;;;31.01;39.11;103163.31;4925061;28;126667;-72
2022/03/18 09:29:27;;;;;;;;;;;;;;;30.49;38.83;103155.41;4925871;28;115969;-72
2022/03/18 09:31:53;;;;;;;;;;;;;;;29.81;38.50;103157.50;4945321;28;117450;-65
2022/03/18 09:34:24;;;;;;;;;;;;;;;29.67;37.80;103154.97;4945408;28;108352;-64
2022/03/18 09:36:53;;;;;;;;;;;;;;;29.57;37.07;103166.44;4944710;28;98181;-73
2022/03/18 09:39:20;;;;;;;;;;;;;;;29.60;36.90;103171.34;4945470;28;97896;-65
2022/03/18 09:41:46;;;;;;;;;;;;;;;29.68;36.63;103164.13;4945247;28;98003;-65
2022/03/18 09:44:12;;;;;;;;;;;;;;;29.69;35.69;103163.78;4945549;28;109351;-73
2022/03/18 09:46:39;;;;;;;;;;;;;;;29.50;35.97;103166.91;4946197;28;97995;-73
2022/03/18 09:49:11;;;;;;;;;;;;;;;28.90;36.25;103169.84;4927106;28;125164;-72
2022/03/18 09:51:43;;;;;;;;;;;;;;;28.60;35.91;103167.72;4912593;28;98008;-73
2022/03/18 09:54:09;;;;;;;;;;;;;;;28.78;35.38;103168.53;4946174;28;98371;-71
2022/03/18 09:56:38;;;;;;;;;;;;;;;28.83;34.81;103165.59;4945111;28;98689;-73
2022/03/18 09:59:04;;;;;;;;;;;;;;;28.92;34.93;103173.09;4944752;28;119482;-64
2022/03/18 10:01:30;;;;;;;;;;;;;;;29.05;34.67;103172.13;4944544;28;115168;-65
2022/03/18 10:04:01;;;;;;;;;;;;;;;29.17;34.27;103177.00;4944402;28;128203;-73
2022/03/18 10:06:32;;;;;;;;;;;;;;;29.26;34.28;103170.28;4926132;28;97918;-72
2022/03/18 10:08:59;;;;;;;;;;;;;;;29.35;34.08;103164.69;4945307;28;98400;-64
2022/03/18 10:11:27;;;;;;;;;;;;;;;29.43;33.62;103165.81;4925769;28;98054;-72
2022/03/18 10:13:56;;;;;;;;;;;;;;;29.51;33.25;103165.75;4945282;28;97851;-73
2022/03/18 10:16:34;;;;;;;;;;;;;;;29.61;33.55;103172.97;4945141;28;98451;-64
2022/03/18 10:19:01;;;;;;;;;;;;;;;29.73;33.44;103166.69;4945424;28;97733;-65
2022/03/18 10:21:28;;;;;;;;;;;;;;;29.83;33.05;103175.47;4922979;28;98008;-74
2022/03/18 10:24:09;;;;;;;;;;;;;;;29.94;32.76;103170.31;4907720;28;98474;-65
2022/03/18 10:26:36;;;;;;;;;;;;;;;30.07;32.13;103183.19;4924629;28;97946;-70
2022/03/18 10:29:02;;;;;;;;;;;;;;;30.26;31.98;103179.16;4925866;28;97825;-64
2022/03/18 10:31:28;;;;;;;;;;;;;;;30.45;31.49;103189.81;4940811;28;99816;-67
2022/03/18 10:39:28;;;;;;;;;;;;;;;31.02;30.76;103187.22;4942696;28;97712;-65
2022/03/18 10:41:54;;;;;;;;;;;;;;;31.14;30.79;103185.63;4943879;28;98177;-72
2022/03/18 10:44:20;;;;;;;;;;;;;;;31.25;30.64;103189.59;4943598;28;116400;-64
2022/03/18 10:46:53;;;;;;;;;;;;;;;31.33;30.28;103191.50;4926832;28;98458;-73
2022/03/18 10:49:21;;;;;;;;;;;;;;;31.38;30.12;103196.84;4944393;28;98973;-65
2022/03/18 10:51:47;;;;;;;;;;;;;;;31.44;29.91;103189.91;4926395;28;97885;-65
2022/03/18 10:54:13;;;;;;;;;;;;;;;31.51;29.80;103194.88;4925518;28;126803;-64
2022/03/18 10:56:56;;;;;;;;;;;;;;;31.60;29.60;103197.56;4943393;28;127772;-72
2022/03/18 10:59:22;;;;;;;;;;;;;;;31.74;29.72;103196.06;4944624;28;97824;-71
2022/03/18 11:01:48;;;;;;;;;;;;;;;31.72;29.84;103195.63;4944162;28;97984;-72
2022/03/18 11:04:15;;;;;;;;;;;;;;;31.63;29.84;103194.09;4925913;28;97944;-64
2022/03/18 11:06:42;;;;;;;;;;;;;;;30.72;30.51;103194.81;4944157;28;98037;-64
2022/03/18 11:09:08;;;;;;;;;;;;;;;30.82;30.26;103196.44;4925672;28;118417;-64
2022/03/18 11:11:34;;;;;;;;;;;;;;;30.95;29.52;103200.06;4944039;28;109558;-64
2022/03/18 11:14:02;;;;;;;;;;;;;;;31.04;29.02;103195.22;4925164;28;127195;-72
2022/03/18 11:16:30;;;;;;;;;;;;;;;31.30;29.28;103197.75;4925844;28;98262;-72
2022/03/18 11:18:57;;;;;;;;;;;;;;;31.66;28.87;103196.19;4943714;28;98732;-64
2022/03/18 11:21:35;;;;;;;;;;;;;;;31.28;29.03;103197.25;4943264;28;98229;-72
2022/03/18 11:24:27;;;;;;;;;;;;;;;30.61;29.74;103199.19;4928496;28;98314;-72
2022/03/18 11:26:53;;;;;;;;;;;;;;;30.93;28.51;103196.78;4939423;28;99206;-64
2022/03/18 11:29:23;;;;;;;;;;;;;;;31.11;28.85;103195.47;4925792;28;98046;-73
2022/03/18 11:32:15;;;;;;;;;;;;;;;31.17;28.32;103188.53;4944546;28;97924;-63
2022/03/18 11:35:11;;;;;;;;;;;;;;;31.22;28.34;103191.09;4943599;28;97881;-72
2022/03/18 11:37:38;;;;;;;;;;;;;;;31.23;28.43;103191.91;4925598;28;127291;-71
2022/03/18 11:40:19;;;;;;;;;;;;;;;31.22;28.37;103185.53;4925286;28;98887;-64
2022/03/18 11:42:46;;;;;;;;;;;;;;;31.21;28.23;103195.06;4943256;28;97752;-64
2022/03/18 11:45:32;;;;;;;;;;;;;;;31.21;28.19;103188.66;4942557;28;98657;-71
2022/03/18 11:47:58;;;;;;;;;;;;;;;31.16;27.87;103180.50;4944340;28;98965;-64
2022/03/18 11:50:38;;;;;;;;;;;;;;;31.15;28.26;103176.09;4943128;28;127549;-64
2022/03/18 11:53:04;;;;;;;;;;;;;;;31.14;27.94;103182.84;4943847;28;97697;-64
2022/03/18 11:55:30;;;;;;;;;;;;;;;31.12;27.93;103187.94;4943946;28;98316;-70
2022/03/18 11:57:56;;;;;;;;;;;;;;;31.05;27.77;103185.72;4943120;28;127235;-71
2022/03/18 12:00:43;;;;;;;;;;;;;;;30.98;27.88;103183.50;4942413;28;128165;-71
2022/03/18 12:03:09;;;;;;;;;;;;;;;30.87;27.77;103182.28;4944414;28;97689;-64
2022/03/18 12:05:35;;;;;;;;;;;;;;;30.75;27.74;103180.28;4923462;28;129070;-72
2022/03/18 12:08:03;;;;;;;;;;;;;;;30.63;27.73;103179.38;4904678;28;128803;-72
2022/03/18 12:10:36;;;;;;;;;;;;;;;30.51;27.91;103175.38;4914829;28;97957;-71
2022/03/18 12:13:05;;;;;;;;;;;;;;;30.41;28.08;103180.53;4941633;28;97988;-71
2022/03/18 12:15:32;;;;;;;;;;;;;;;30.31;27.74;103182.56;4942841;28;99047;-63
2022/03/18 12:17:58;;;;;;;;;;;;;;;30.18;27.75;103168.91;4944056;28;97965;-64
2022/03/18 12:20:31;;;;;;;;;;;;;;;30.02;27.80;103166.69;4942142;28;111122;-72
2022/03/18 12:23:02;;;;;;;;;;;;;;;29.87;28.24;103166.44;4944467;28;97985;-63
2022/03/18 12:25:28;;;;;;;;;;;;;;;29.66;28.41;103160.84;4923174;28;112989;-63
2022/03/18 12:27:54;;;;;;;;;;;;;;;29.51;28.53;103159.41;4942396;28;127906;-72
2022/03/18 12:30:25;;;;;;;;;;;;;;;29.35;28.35;103159.13;4941811;28;128906;-63
2022/03/18 12:32:55;;;;;;;;;;;;;;;29.16;28.08;103151.22;4924675;28;97932;-63
2022/03/18 12:35:26;;;;;;;;;;;;;;;28.98;28.48;103153.19;4942346;28;102443;-71
2022/03/18 12:38:16;;;;;;;;;;;;;;;28.82;28.67;103160.38;4942446;28;98970;-64
2022/03/18 12:40:54;;;;;;;;;;;;;;;28.63;28.37;103155.16;4942884;28;97901;-63
2022/03/18 12:43:21;;;;;;;;;;;;;;;28.50;28.69;103150.59;4943732;28;97866;-71
2022/03/18 12:45:47;;;;;;;;;;;;;;;28.40;28.35;103157.28;4942821;28;98375;-72
2022/03/18 12:48:16;;;;;;;;;;;;;;;28.31;28.80;103153.66;4942990;28;127850;-72
2022/03/18 12:50:49;;;;;;;;;;;;;;;28.16;28.78;103141.06;4940511;28;126607;-73
2022/03/18 12:53:20;;;;;;;;;;;;;;;27.96;28.98;103145.28;4943476;28;98754;-64
2022/03/18 12:55:49;;;;;;;;;;;;;;;27.79;29.08;103142.47;4945774;28;98675;-73
2022/03/18 12:58:15;;;;;;;;;;;;;;;27.61;28.95;103138.78;4953676;28;99054;-74
2022/03/18 13:00:42;;;;;;;;;;;;;;;27.49;29.11;103133.03;4943957;28;126697;-74